Latest Weather Observations for Bulman

IDD60801

Issued at 7:11 pm CST Monday 17 December 2018 (issued every 10 minutes, with the page automatically refreshed every 10 minutes)

About weather observations | Map of weather stations | Latest weather observations for NT | Other Formats
Station Details ID: 014627 Name: BULMAN Lat: -13.67 Lon: 134.34 Height: 103.4 m
Data from the previous 72 hours. | See also: Recent months at Bulman
Date/Time
CST
Temp
°C
App
Temp
°C
Dew
Point
°C
Rel
Hum
%
Delta-T
°C
Wind Press
QNH
hPa
Press
MSL
hPa
Rain since
9am
mm
Dir  Spd
km/h
Gust
km/h
Spd
kts
Gust
kts
17/07:00pm 30.1 34.6 22.3 63 5.3 NNE 2 6 1 3 1005.3 1004.5 0.0
17/06:30pm 30.9 34.2 21.4 57 6.4 N 6 7 3 4 1004.8 1004.0 0.0
17/06:00pm 31.4 33.7 21.3 55 6.8 NNW 11 15 6 8 1004.4 1003.6 0.0
17/05:30pm 32.6 35.2 20.5 49 8.1 NW 7 9 4 5 1004.1 1003.3 0.0
17/05:00pm 33.1 36.3 21.6 51 7.8 NNW 7 11 4 6 1004.1 1003.3 0.0
17/04:30pm 33.0 35.5 21.8 51 7.7 NNW 11 17 6 9 1004.1 1003.3 0.0
17/04:00pm 33.5 35.6 21.0 48 8.4 NNE 11 20 6 11 1004.3 1003.5 0.0
17/03:30pm 35.0 38.4 22.0 46 8.9 SE 7 11 4 6 1004.2 1003.4 0.0
17/03:00pm 35.2 38.0 21.5 45 9.4 SSE 9 13 5 7 1004.3 1003.5 0.0
17/02:30pm 35.3 38.3 21.2 44 9.6 SE 7 9 4 5 1004.8 1004.0 0.0
17/02:00pm 34.9 38.3 21.6 46 9.1 NE 6 11 3 6 1005.2 1004.4 0.0
17/01:30pm 35.2 39.1 21.8 45 9.2 NNE 4 9 2 5 1005.5 1004.7 0.0
17/01:00pm 35.2 38.1 20.7 42 9.8 NE 6 11 3 6 1005.9 1005.1 0.0
17/12:30pm 33.7 37.3 22.1 50 8.0 NNE 6 9 3 5 1006.2 1005.4 0.0
17/12:00pm 33.5 37.1 22.0 51 7.9 N 6 7 3 4 1006.6 1005.7 0.0
17/11:30am 32.4 35.4 21.3 52 7.5 NNE 7 11 4 6 1006.9 1006.0 0.0
17/11:00am 31.5 35.2 22.2 57 6.3 NNW 6 9 3 5 1007.1 1006.2 0.0
17/10:30am 30.9 34.9 22.8 62 5.6 NNW 6 9 3 5 1007.4 1006.5 0.0
17/10:00am 30.5 34.8 22.7 63 5.3 SSW 4 6 2 3 1007.6 1006.7 0.0
17/09:30am 30.5 35.6 23.4 66 4.9 SSW 2 6 1 3 1007.6 1006.7 0.0
17/09:00am 29.6 34.4 22.8 67 4.7 NNE 2 6 1 3 1007.2 1006.3 0.0
17/08:30am 29.3 33.2 23.0 69 4.3 N 7 11 4 6 1006.7 1005.8 0.0
17/08:00am 28.4 32.9 22.2 69 4.2 NNE 2 7 1 4 1006.7 1005.8 0.0
17/07:30am 27.6 32.6 22.5 74 3.5 CALM 0 0 0 0 1006.6 1005.7 0.0
17/07:00am 26.8 32.1 23.1 80 2.5 CALM 0 0 0 0 1006.4 1005.5 0.0
17/06:30am 26.7 31.6 22.3 77 3.0 CALM 0 0 0 0 1006.4 1005.5 0.0
17/06:00am 26.5 32.1 23.6 84 2.0 CALM 0 0 0 0 1005.9 1005.1 0.0
17/05:30am 26.7 32.2 24.0 85 1.9 WNW 2 7 1 4 1005.9 1005.1 0.0
17/05:00am 26.9 32.5 23.6 82 2.3 CALM 0 0 0 0 1005.4 1004.6 0.0
17/04:30am 27.2 32.9 23.7 81 2.4 CALM 0 0 0 0 1005.6 1004.8 0.0
17/04:00am 27.6 31.8 23.4 78 2.9 WNW 7 11 4 6 1006.1 1005.3 0.0
17/03:30am 27.2 31.3 23.9 82 2.3 NNW 9 11 5 6 1006.2 1005.4 0.0
17/03:00am 27.6 31.8 23.2 77 3.0 NW 6 9 3 5 1006.2 1005.4 0.0
17/02:30am 27.3 31.6 23.7 81 2.5 NNW 7 11 4 6 1006.0 1005.2 0.0
17/02:00am 27.4 32.4 23.8 81 2.5 N 4 7 2 4 1005.7 1004.9 0.0
17/01:30am 27.5 31.9 23.5 79 2.8 NNW 6 9 3 5 1006.1 1005.3 0.0
17/01:00am 27.8 33.3 23.4 77 3.0 CALM 0 0 0 0 1007.0 1006.1 0.0
17/12:30am 27.5 32.8 23.1 77 3.0 CALM 0 0 0 0 1006.9 1006.0 0.0
17/12:00am 27.9 32.8 23.1 75 3.3 N 2 6 1 3 1006.4 1005.5 0.0
 
Date/Time
CST
Temp
°C
App
Temp
°C
Dew
Point
°C
Rel
Hum
%
Delta-T
°C
Wind Press
QNH
hPa
Press
MSL
hPa
Rain since
9am
mm
Dir  Spd
km/h
Gust
km/h
Spd
kts
Gust
kts
16/11:30pm 28.4 32.2 22.4 70 4.1 SSE 6 11 3 6 1007.3 1006.4 0.0
16/11:00pm 28.2 32.0 22.7 72 3.7 ESE 7 15 4 8 1008.1 1007.3 0.0
16/10:30pm 28.2 31.8 22.4 71 3.9 NW 7 11 4 6 1007.6 1006.7 0.0
16/10:00pm 28.2 31.3 22.2 70 4.1 N 9 15 5 8 1007.1 1006.2 0.0
16/09:30pm 28.3 30.8 21.8 68 4.4 NNE 11 20 6 11 1007.5 1006.6 0.0
16/09:00pm 28.2 30.6 21.5 67 4.5 N 11 15 6 8 1007.4 1006.5 0.0
16/08:30pm 28.4 30.8 22.2 69 4.2 NNE 13 20 7 11 1007.1 1006.2 0.0
16/08:00pm 29.7 30.6 21.6 61 5.5 NE 19 32 10 17 1006.9 1006.0 0.0
16/07:30pm 31.6 34.0 21.5 55 6.8 NNE 11 24 6 13 1006.0 1005.2 0.0
16/07:00pm 31.8 34.2 20.1 50 7.8 N 7 13 4 7 1005.0 1004.2 0.0
16/06:30pm 33.2 35.9 21.4 50 8.0 NW 9 13 5 7 1003.9 1003.1 0.0
16/06:00pm 33.7 35.6 20.5 46 8.9 N 11 17 6 9 1003.7 1002.9 0.0
16/05:30pm 34.2 35.5 19.4 41 9.8 NE 11 19 6 10 1003.7 1002.9 0.0
16/05:00pm 33.4 34.6 19.8 44 9.0 ENE 13 22 7 12 1003.5 1002.7 0.0
16/04:30pm 35.0 34.6 17.2 34 11.5 E 15 28 8 15 1003.5 1002.7 0.0
16/04:00pm 38.6 40.1 18.9 31 13.1 WSW 9 13 5 7 1003.1 1002.3 0.0
16/03:30pm 38.2 40.2 20.0 34 12.3 WNW 9 15 5 8 1003.5 1002.7 0.0
16/03:00pm 38.1 41.0 21.7 38 11.3 NW 9 17 5 9 1003.8 1003.0 0.0
16/02:30pm 37.4 40.1 20.2 36 11.6 NW 6 9 3 5 1004.3 1003.5 0.0
16/02:00pm 37.7 40.8 21.4 39 11.2 W 7 15 4 8 1004.7 1003.9 0.0
16/01:30pm 36.7 39.1 20.9 39 10.8 WSW 9 13 5 7 1005.3 1004.5 0.0
16/01:00pm 36.5 38.9 21.5 41 10.3 NNW 11 20 6 11 1005.7 1004.9 0.0
16/12:30pm 36.0 39.7 22.2 45 9.5 WNW 6 13 3 7 1006.1 1005.3 0.0
16/12:00pm 35.9 40.5 23.8 49 8.5 NW 6 11 3 6 1006.5 1005.6 0.0
16/11:30am 35.0 38.6 23.7 52 7.9 NNW 11 17 6 9 1006.8 1005.9 0.0
16/11:00am 34.6 39.4 24.5 55 7.1 WSW 7 15 4 8 1007.2 1006.3 0.0
16/10:30am 33.7 37.3 24.3 58 6.6 NW 13 19 7 10 1007.4 1006.5 0.0
16/10:00am 32.9 36.7 23.5 57 6.5 WNW 9 13 5 7 1007.5 1006.6 0.0
16/09:30am 32.2 36.2 23.7 61 5.9 NW 9 15 5 8 1007.6 1006.7 0.0
16/09:00am 31.4 36.1 25.5 71 4.2 NW 11 15 6 8 1007.7 1006.8 0.2
16/08:30am 29.6 35.2 25.4 78 3.0 N 6 13 3 7 1007.8 1006.9 0.2
16/08:00am 28.2 34.4 25.2 84 2.1 NW 2 7 1 4 1008.0 1007.2 0.2
16/07:30am 27.0 32.0 24.5 86 1.7 NNW 6 9 3 5 1007.9 1007.0 0.2
16/07:00am 26.6 32.2 24.3 87 1.6 N 2 6 1 3 1007.6 1006.7 0.2
16/06:30am 26.1 31.1 24.5 91 1.1 NNW 6 7 3 4 1007.2 1006.3 0.2
16/06:00am 25.8 30.6 24.2 91 1.1 NNW 6 6 3 3 1006.6 1005.7 0.2
16/05:30am 25.9 30.8 24.3 91 1.1 NNW 6 7 3 4 1006.4 1005.5 0.2
16/05:00am 26.0 30.7 24.0 89 1.4 N 6 6 3 3 1005.7 1004.9 0.2
16/04:30am 26.2 31.0 24.1 88 1.5 N 6 9 3 5 1005.3 1004.5 0.2
16/04:00am 26.2 31.1 24.4 90 1.2 N 6 9 3 5 1005.0 1004.2 0.2
16/03:30am 26.3 31.9 24.3 89 1.4 N 2 6 1 3 1005.0 1004.2 0.2
16/03:00am 26.5 31.1 24.2 87 1.6 N 7 9 4 5 1004.9 1004.1 0.2
16/02:30am 26.7 31.6 24.4 87 1.6 NW 6 7 3 4 1005.0 1004.2 0.2
16/02:00am 26.8 31.6 24.1 85 1.9 NNW 6 7 3 4 1005.0 1004.2 0.2
16/01:30am 26.9 31.4 24.0 84 2.0 N 7 11 4 6 1005.1 1004.3 0.2
16/01:00am 27.2 32.0 24.1 83 2.1 N 6 9 3 5 1005.8 1005.0 0.2
16/12:30am 27.5 32.0 23.9 81 2.5 N 7 9 4 5 1006.4 1005.5 0.2
16/12:00am 27.6 32.4 24.2 82 2.4 N 6 6 3 3 1006.5 1005.6 0.2
 
Date/Time
CST
Temp
°C
App
Temp
°C
Dew
Point
°C
Rel
Hum
%
Delta-T
°C
Wind Press
QNH
hPa
Press
MSL
hPa
Rain since
9am
mm
Dir  Spd
km/h
Gust
km/h
Spd
kts
Gust
kts
15/11:30pm 27.8 32.4 23.8 79 2.8 N 6 7 3 4 1006.2 1005.4 0.2
15/11:00pm 28.1 32.8 23.9 78 2.9 NNE 6 7 3 4 1006.2 1005.4 0.2
15/10:30pm 28.4 32.1 23.3 74 3.5 NNE 9 13 5 7 1005.8 1005.0 0.2
15/10:00pm 28.6 33.1 23.7 75 3.4 NNE 6 7 3 4 1005.3 1004.5 0.2
15/09:30pm 29.1 33.3 23.5 72 3.9 N 7 9 4 5 1005.3 1004.5 0.2
15/09:00pm 29.7 33.9 23.4 69 4.4 NNE 7 11 4 6 1005.2 1004.4 0.2
15/08:30pm 30.6 34.0 23.3 65 5.1 NNE 11 19 6 10 1005.3 1004.5 0.2
15/08:00pm 31.2 35.1 23.6 64 5.3 NNE 9 13 5 7 1004.8 1004.0 0.2
15/07:30pm 31.8 35.7 23.6 62 5.7 NNE 9 13 5 7 1004.8 1004.0 0.2
15/07:00pm 32.4 38.9 25.7 68 4.8 N 2 9 1 5 1004.1 1003.3 0.2
15/06:30pm 33.4 39.2 24.6 60 6.2 ENE 2 6 1 3 1003.9 1003.1 0.2
15/06:00pm 34.0 39.3 24.3 57 6.9 N 4 6 2 3 1003.1 1002.3 0.2
15/05:30pm 34.8 39.2 23.5 52 7.9 NNW 6 9 3 5 1002.8 1002.0 0.2
15/05:00pm 35.0 39.0 22.7 49 8.5 N 6 9 3 5 1003.0 1002.2 0.2
15/04:30pm 34.9 38.2 22.6 49 8.5 NNW 9 15 5 8 1002.9 1002.1 0.2
15/04:00pm 34.6 38.9 23.6 52 7.7 NNE 7 13 4 7 1003.0 1002.2 0.2
15/03:30pm 34.3 37.9 22.4 50 8.2 NNE 7 11 4 6 1003.5 1002.7 0.2
15/03:00pm 34.5 38.9 23.5 52 7.7 NNW 6 9 3 5 1003.6 1002.8 0.2
15/02:30pm 34.3 38.6 23.6 53 7.5 NE 7 11 4 6 1003.9 1003.1 0.2
15/02:00pm 34.2 37.7 22.9 51 7.8 NNW 9 13 5 7 1004.4 1003.6 0.2
15/01:30pm 34.0 38.3 23.7 55 7.2 N 7 11 4 6 1004.9 1004.1 0.2
15/01:00pm 34.2 38.9 23.9 55 7.2 S 6 9 3 5 1005.5 1004.7 0.2
15/12:30pm 33.1 37.5 22.8 54 7.1 ESE 4 9 2 5 1005.9 1005.1 0.2
15/12:00pm 32.7 36.3 23.1 57 6.7 S 9 15 5 8 1006.2 1005.4 0.2
15/11:30am 32.0 36.0 23.8 62 5.7 SE 9 15 5 8 1006.8 1005.9 0.2
15/11:00am 31.0 35.3 23.6 64 5.1 SSW 7 13 4 7 1007.1 1006.2 0.2
15/10:30am 30.3 34.8 23.7 68 4.6 SSW 6 9 3 5 1007.5 1006.6 0.2
15/10:00am 29.1 35.1 24.2 75 3.4 CALM 0 2 0 1 1007.9 1007.0 0.2
15/09:30am 27.9 33.2 24.3 81 2.5 N 4 7 2 4 1007.8 1006.9 0.0
15/09:00am 27.2 33.2 24.3 84 2.0 CALM 0 0 0 0 1007.9 1007.0 23.4
15/08:30am 26.4 31.2 24.2 88 1.5 SE 6 7 3 4 1007.5 1006.6 23.4
15/08:00am 26.0 30.9 24.4 91 1.1 ESE 6 9 3 5 1007.1 1006.2 23.4
15/07:30am 25.8 31.1 24.4 92 1.0 E 4 7 2 4 1006.8 1005.9 23.4
15/07:00am 25.4 31.1 23.8 91 1.1 CALM 0 0 0 0 1006.6 1005.7 23.4
15/06:30am 25.5 29.8 23.7 90 1.2 W 7 11 4 6 1006.0 1005.2 23.4
15/06:00am 25.0 29.6 23.8 93 0.8 SW 6 9 3 5 1005.7 1004.9 23.4
15/05:30am 24.8 29.2 23.8 94 0.7 SW 7 13 4 7 1005.4 1004.6 23.4
15/05:00am 24.8 29.4 23.8 94 0.7 WNW 6 9 3 5 1005.6 1004.8 23.4
15/04:30am 24.7 29.1 23.8 95 0.6 WSW 7 9 4 5 1005.1 1004.3 23.4
15/04:00am 24.6 29.1 23.9 96 0.5 NNW 7 9 4 5 1005.1 1004.3 23.4
15/03:30am 24.4 28.6 23.5 95 0.6 NNW 7 11 4 6 1004.6 1003.8 23.4
15/03:00am 24.3 25.8 23.1 93 0.8 SSE 20 32 11 17 1004.4 1003.6 22.8
15/02:30am 26.2 28.9 24.1 88 1.5 SW 17 37 9 20 1004.8 1004.0 4.8
15/02:00am 29.2 34.9 25.0 78 3.0 S 4 7 2 4 1004.3 1003.5 0.2
15/01:30am 29.2 33.6 24.5 76 3.3 ESE 9 15 5 8 1004.2 1003.4 0.2
15/01:00am 28.4 34.7 24.8 81 2.5 CALM 0 0 0 0 1004.3 1003.5 0.2
15/12:30am 29.0 33.7 24.3 76 3.3 NNW 7 9 4 5 1003.7 1002.9 0.2
15/12:00am 29.6 33.7 24.0 72 3.9 NNW 9 13 5 7 1003.6 1002.8 0.2
 
Date/Time
CST
Temp
°C
App
Temp
°C
Dew
Point
°C
Rel
Hum
%
Delta-T
°C
Wind Press
QNH
hPa
Press
MSL
hPa
Rain since
9am
mm
Dir  Spd
km/h
Gust
km/h
Spd
kts
Gust
kts
14/11:30pm 29.0 34.0 25.4 81 2.6 NNW 9 15 5 8 1004.2 1003.4 0.2
14/11:00pm 28.9 35.5 25.3 81 2.5 CALM 0 0 0 0 1004.3 1003.5 0.2
14/10:30pm 29.0 35.7 25.4 81 2.6 CALM 0 0 0 0 1004.0 1003.2 0.2
14/10:00pm 29.3 36.2 25.7 81 2.6 CALM 0 0 0 0 1004.1 1003.3 0.2
14/09:30pm 29.7 36.9 26.1 81 2.6 CALM 0 0 0 0 1004.0 1003.2 0.2
14/09:00pm 30.2 35.6 25.5 76 3.3 NNW 7 11 4 6 1003.8 1003.0 0.2
14/08:30pm 30.1 36.8 25.4 76 3.3 CALM 0 0 0 0 1003.3 1002.5 0.2
14/08:00pm 30.8 37.0 25.8 74 3.6 W 4 7 2 4 1003.3 1002.5 0.2
14/07:30pm 31.3 36.6 24.9 69 4.5 W 6 7 3 4 1003.0 1002.2 0.2

Other Formats:

Comma delimited format used in spreadsheet applications
http://www.bom.gov.au/fwo/IDD60801/IDD60801.94143.axf

JavaScript Object Notation format (JSON) in row-major order
http://www.bom.gov.au/fwo/IDD60801/IDD60801.94143.json